This is the latest recevied weather packets stored in our database for station/object Aulendorf. If no packets are shown the sender has not sent any weather packets the latest 10 day(s).
| Time | Temp. | Humidity | Pressure | Rain* | Wind** | Luminosity | Snow |
|---|---|---|---|---|---|---|---|
| 1777744931 | 22.22° C | 35% | 1015.2 hPa | 0 mm | - | - | - |
| 1777743130 | 22.78° C | 34% | 1015.3 hPa | 0 mm | - | - | - |
| 1777741330 | 23.89° C | 32% | 1015.4 hPa | 0 mm | - | - | - |
| 1777739530 | 25° C | 30% | 1015.6 hPa | 0 mm | - | - | - |
| 1777737733 | 23.89° C | 33% | 1016 hPa | 0 mm | - | - | - |
| 1777735930 | 24.44° C | 33% | 1016.3 hPa | 0 mm | - | - | - |
| 1777734130 | 24.44° C | 32% | 1016.7 hPa | 0 mm | - | - | - |
| 1777732330 | 23.89° C | 34% | 1017.2 hPa | 0 mm | - | - | - |
| 1777730530 | 23.89° C | 35% | 1017.5 hPa | 0 mm | - | - | - |
| 1777728731 | 23.89° C | 34% | 1017.9 hPa | 0 mm | - | - | - |
| 1777726930 | 23.89° C | 36% | 1018.2 hPa | 0 mm | - | - | - |
| 1777725131 | 23.33° C | 36% | 1018.6 hPa | 0 mm | - | - | - |
| 1777723330 | 23.33° C | 37% | 1019.1 hPa | 0 mm | - | - | - |
| 1777721531 | 22.78° C | 40% | 1019.5 hPa | 0 mm | - | - | - |
| 1777719730 | 22.22° C | 41% | 1019.9 hPa | 0 mm | - | - | - |
| 1777717930 | 21.11° C | 46% | 1020.2 hPa | 0 mm | - | - | - |
| 1777716131 | 20.56° C | 48% | 1020.7 hPa | 0 mm | - | - | - |
| 1777714331 | 19.44° C | 50% | 1021 hPa | 0 mm | - | - | - |
| 1777712530 | 18.33° C | 51% | 1021.3 hPa | 0 mm | - | - | - |
| 1777710730 | 17.22° C | 53% | 1021.5 hPa | 0 mm | - | - | - |
| 1777708931 | 15.56° C | 53% | 1021.7 hPa | 0 mm | - | - | - |
| 1777707130 | 14.44° C | 56% | 1021.8 hPa | 0 mm | - | - | - |
| 1777705333 | 13.33° C | 58% | 1021.9 hPa | 0 mm | - | - | - |
| 1777703532 | 11.67° C | 61% | 1022 hPa | 0 mm | - | - | - |
| 1777701731 | 10° C | 66% | 1022 hPa | 0 mm | - | - | - |
* Rain since midnight (hover to see other rain measurements)
** Current wind speed in m/s (hover to see current wind gust speed)